Time,TemperatureF,DewpointF,PressureIn,WindDirection,WindDirectionDegrees,WindSpeedMPH,WindSpeedGustMPH,Humidity,HourlyPrecipIn,Conditions,Clouds,dailyrainin,SoftwareType,DateUTC
2013-07-15 00:00:00,63.2,45.8,29.84,NNW,328,0.0,0.0,53,0.00,,,0.00,WeatherCatV1.15B25,2013-07-15 07:00:00,
2013-07-15 00:05:00,63.2,46.3,29.84,NNW,328,0.0,0.0,54,0.00,,,0.00,WeatherCatV1.15B25,2013-07-15 07:05:00,
2013-07-15 00:10:00,63.2,46.8,29.84,NNW,328,0.0,0.0,55,0.00,,,0.00,WeatherCatV1.15B25,2013-07-15 07:10:00,
2013-07-15 00:15:00,63.0,46.1,29.84,NNW,328,0.0,0.0,54,0.00,,,0.00,WeatherCatV1.15B25,2013-07-15 07:15:00,
2013-07-15 00:20:00,62.9,46.5,29.84,NNW,328,0.0,0.0,55,0.00,,,0.00,WeatherCatV1.15B25,2013-07-15 07:20:00,
2013-07-15 00:25:00,62.7,45.8,29.84,NNW,328,0.0,0.0,54,0.00,,,0.00,WeatherCatV1.15B25,2013-07-15 07:25:00,
2013-07-15 00:30:00,62.5,45.6,29.84,NNW,328,0.0,0.0,54,0.00,,,0.00,WeatherCatV1.15B25,2013-07-15 07:30:00,
2013-07-15 00:35:00,62.4,45.5,29.84,NNW,328,0.0,0.0,54,0.00,,,0.00,WeatherCatV1.15B25,2013-07-15 07:35:00,
2013-07-15 00:40:00,62.2,45.3,29.84,NNW,328,0.0,0.0,54,0.00,,,0.00,WeatherCatV1.15B25,2013-07-15 07:40:00,
2013-07-15 00:45:00,62.1,44.8,29.84,NNW,328,0.0,0.0,53,0.00,,,0.00,WeatherCatV1.15B25,2013-07-15 07:45:00,
2013-07-15 00:50:00,62.0,44.7,29.84,NNW,328,0.0,0.0,53,0.00,,,0.00,WeatherCatV1.15B25,2013-07-15 07:50:00,
2013-07-15 00:55:00,61.9,45.6,29.84,NNW,328,0.0,0.0,55,0.00,,,0.00,WeatherCatV1.15B25,2013-07-15 07:55:00,
2013-07-15 01:00:00,61.8,45.5,29.84,NNW,328,0.0,0.0,55,0.00,,,0.00,WeatherCatV1.15B25,2013-07-15 08:00:00,
2013-07-15 01:05:00,61.8,47.3,29.84,NNW,328,0.0,0.0,59,0.00,,,0.00,WeatherCatV1.15B25,2013-07-15 08:05:00,
2013-07-15 01:10:00,61.8,47.8,29.84,NNW,328,0.0,0.0,60,0.00,,,0.00,WeatherCatV1.15B25,2013-07-15 08:10:00,
2013-07-15 01:15:00,61.8,48.2,29.83,NNW,328,0.0,0.0,61,0.00,,,0.00,WeatherCatV1.15B25,2013-07-15 08:15:00,
2013-07-15 01:20:00,61.7,47.7,29.83,NNW,328,0.0,0.0,60,0.00,,,0.00,WeatherCatV1.15B25,2013-07-15 08:20:00,
2013-07-15 01:25:00,61.6,48.4,29.83,NNW,328,0.0,0.0,62,0.00,,,0.00,WeatherCatV1.15B25,2013-07-15 08:25:00,
2013-07-15 01:30:00,61.6,48.9,29.84,NNW,328,0.0,0.0,63,0.00,,,0.00,WeatherCatV1.15B25,2013-07-15 08:30:00,
2013-07-15 01:35:00,61.4,49.1,29.84,NNW,328,0.0,0.0,64,0.00,,,0.00,WeatherCatV1.15B25,2013-07-15 08:35:00,
2013-07-15 01:40:00,61.3,45.9,29.84,NNW,328,0.0,0.0,57,0.00,,,0.00,WeatherCatV1.15B25,2013-07-15 08:40:00,
2013-07-15 01:45:00,61.1,45.3,29.83,NNW,328,0.0,0.0,56,0.00,,,0.00,WeatherCatV1.15B25,2013-07-15 08:45:00,
2013-07-15 01:50:00,61.0,42.7,29.83,NNW,328,0.0,0.0,51,0.00,,,0.00,WeatherCatV1.15B25,2013-07-15 08:50:00,
2013-07-15 01:55:00,60.8,40.4,29.83,NNW,328,0.0,0.0,47,0.00,,,0.00,WeatherCatV1.15B25,2013-07-15 08:55:00,
2013-07-15 02:00:00,60.7,39.2,29.83,NNW,328,0.0,0.0,45,0.00,,,0.00,WeatherCatV1.15B25,2013-07-15 09:00:00,
2013-07-15 02:05:00,60.7,38.1,29.83,NNW,328,0.0,0.0,43,0.00,,,0.00,WeatherCatV1.15B25,2013-07-15 09:05:00,
2013-07-15 02:10:00,60.7,37.5,29.83,NNW,328,0.0,0.0,42,0.00,,,0.00,WeatherCatV1.15B25,2013-07-15 09:10:00,
2013-07-15 02:15:00,60.8,35.7,29.83,NNW,328,0.0,0.0,39,0.00,,,0.00,WeatherCatV1.15B25,2013-07-15 09:15:00,
2013-07-15 02:20:00,60.8,39.3,29.83,NNW,328,0.0,0.0,45,0.00,,,0.00,WeatherCatV1.15B25,2013-07-15 09:20:00,
2013-07-15 02:25:00,60.7,38.7,29.83,NNW,328,0.0,0.0,44,0.00,,,0.00,WeatherCatV1.15B25,2013-07-15 09:25:00,
2013-07-15 02:30:00,60.5,41.2,29.83,NNW,328,0.0,0.0,49,0.00,,,0.00,WeatherCatV1.15B25,2013-07-15 09:30:00,
2013-07-15 02:35:00,60.4,42.2,29.83,NNW,328,0.0,0.0,51,0.00,,,0.00,WeatherCatV1.15B25,2013-07-15 09:35:00,
2013-07-15 02:40:00,60.3,43.6,29.83,NNW,328,0.0,0.0,54,0.00,,,0.00,WeatherCatV1.15B25,2013-07-15 09:40:00,
2013-07-15 02:45:00,60.2,42.0,29.83,NNW,328,0.0,0.0,51,0.00,,,0.00,WeatherCatV1.15B25,2013-07-15 09:45:00,
2013-07-15 02:50:00,60.0,41.8,29.83,NNW,328,0.0,0.0,51,0.00,,,0.00,WeatherCatV1.15B25,2013-07-15 09:50:00,
2013-07-15 02:55:00,59.9,43.2,29.83,NNW,328,0.0,0.0,54,0.00,,,0.00,WeatherCatV1.15B25,2013-07-15 09:55:00,
2013-07-15 03:00:00,59.8,42.1,29.82,NNW,328,0.0,0.0,52,0.00,,,0.00,WeatherCatV1.15B25,2013-07-15 10:00:00,
2013-07-15 03:05:00,59.8,41.1,29.82,NNW,328,0.0,0.0,50,0.00,,,0.00,WeatherCatV1.15B25,2013-07-15 10:05:00,
2013-07-15 03:10:00,59.8,40.6,29.82,NNW,329,0.0,0.0,49,0.00,,,0.00,WeatherCatV1.15B25,2013-07-15 10:10:00,
2013-07-15 03:15:00,59.9,41.2,29.81,NNW,329,0.0,0.0,50,0.00,,,0.00,WeatherCatV1.15B25,2013-07-15 10:15:00,
2013-07-15 03:20:00,60.0,42.8,29.81,NNW,329,0.0,0.0,53,0.00,,,0.00,WeatherCatV1.15B25,2013-07-15 10:20:00,
2013-07-15 03:25:00,60.1,43.9,29.81,NNW,329,0.0,0.0,55,0.00,,,0.00,WeatherCatV1.15B25,2013-07-15 10:25:00,
2013-07-15 03:30:00,60.1,42.4,29.81,NNW,329,0.0,0.0,52,0.00,,,0.00,WeatherCatV1.15B25,2013-07-15 10:30:00,
2013-07-15 03:35:00,60.1,42.4,29.81,NNW,329,0.0,0.0,52,0.00,,,0.00,WeatherCatV1.15B25,2013-07-15 10:35:00,
2013-07-15 03:40:00,60.0,39.2,29.81,NNW,329,0.0,0.0,46,0.00,,,0.00,WeatherCatV1.15B25,2013-07-15 10:40:00,
2013-07-15 03:45:00,60.0,40.3,29.81,NNW,329,0.0,0.0,48,0.00,,,0.00,WeatherCatV1.15B25,2013-07-15 10:45:00,
2013-07-15 03:50:00,59.9,37.3,29.81,NNW,329,0.0,0.0,43,0.00,,,0.00,WeatherCatV1.15B25,2013-07-15 10:50:00,
2013-07-15 03:55:00,59.7,37.2,29.81,NNW,329,0.0,0.0,43,0.00,,,0.00,WeatherCatV1.15B25,2013-07-15 10:55:00,
2013-07-15 04:00:00,59.6,37.1,29.81,NNW,329,0.0,0.0,43,0.00,,,0.00,WeatherCatV1.15B25,2013-07-15 11:00:00,
2013-07-15 04:05:00,59.5,41.9,29.81,NNW,329,0.0,0.0,52,0.00,,,0.00,WeatherCatV1.15B25,2013-07-15 11:05:00,
2013-07-15 04:10:00,59.4,42.3,29.81,NNW,329,0.0,0.0,53,0.00,,,0.00,WeatherCatV1.15B25,2013-07-15 11:10:00,
2013-07-15 04:15:00,59.3,42.2,29.81,NNW,329,0.0,0.0,53,0.00,,,0.00,WeatherCatV1.15B25,2013-07-15 11:15:00,
2013-07-15 04:20:00,59.0,40.9,29.81,NNW,329,0.0,0.0,51,0.00,,,0.00,WeatherCatV1.15B25,2013-07-15 11:20:00,
2013-07-15 04:25:00,58.9,41.3,29.81,NNW,329,0.0,0.0,52,0.00,,,0.00,WeatherCatV1.15B25,2013-07-15 11:25:00,
2013-07-15 04:30:00,58.6,37.9,29.81,NNW,329,0.0,0.0,46,0.00,,,0.00,WeatherCatV1.15B25,2013-07-15 11:30:00,
2013-07-15 04:35:00,58.4,34.2,29.81,NNW,329,0.0,0.0,40,0.00,,,0.00,WeatherCatV1.15B25,2013-07-15 11:35:00,
2013-07-15 04:40:00,58.1,34.5,29.81,NNW,329,0.0,0.0,41,0.00,,,0.00,WeatherCatV1.15B25,2013-07-15 11:40:00,
2013-07-15 04:45:00,57.8,31.0,29.81,NNW,329,0.0,0.0,36,0.00,,,0.00,WeatherCatV1.15B25,2013-07-15 11:45:00,
2013-07-15 04:50:00,57.6,32.2,29.81,NNW,329,0.0,0.0,38,0.00,,,0.00,WeatherCatV1.15B25,2013-07-15 11:50:00,
2013-07-15 04:55:00,57.3,33.2,29.81,NNW,329,0.0,0.0,40,0.00,,,0.00,WeatherCatV1.15B25,2013-07-15 11:55:00,
2013-07-15 05:00:00,57.2,31.2,29.80,NNW,329,0.0,0.0,37,0.00,,,0.00,WeatherCatV1.15B25,2013-07-15 12:00:00,
2013-07-15 05:05:00,57.2,32.5,29.80,NNW,329,0.0,0.0,39,0.00,,,0.00,WeatherCatV1.15B25,2013-07-15 12:05:00,
2013-07-15 05:10:00,57.3,35.6,29.80,NNW,329,0.0,0.0,44,0.00,,,0.00,WeatherCatV1.15B25,2013-07-15 12:10:00,
2013-07-15 05:15:00,57.3,35.0,29.80,NNW,329,0.0,0.0,43,0.00,,,0.00,WeatherCatV1.15B25,2013-07-15 12:15:00,
2013-07-15 05:20:00,57.3,37.2,29.80,NNW,329,0.0,0.0,47,0.00,,,0.00,WeatherCatV1.15B25,2013-07-15 12:20:00,
2013-07-15 05:25:00,57.2,35.5,29.80,NNW,329,0.0,0.0,44,0.00,,,0.00,WeatherCatV1.15B25,2013-07-15 12:25:00,
2013-07-15 05:30:00,57.0,30.3,29.80,NNW,329,0.0,0.0,36,0.00,,,0.00,WeatherCatV1.15B25,2013-07-15 12:30:00,
2013-07-15 05:35:00,56.8,30.8,29.80,NNW,329,0.0,0.0,37,0.00,,,0.00,WeatherCatV1.15B25,2013-07-15 12:35:00,
2013-07-15 05:40:00,56.5,30.5,29.80,NNW,329,0.0,0.0,37,0.00,,,0.00,WeatherCatV1.15B25,2013-07-15 12:40:00,
2013-07-15 05:45:00,56.3,38.4,29.80,NNW,329,0.0,0.0,51,0.00,,,0.00,WeatherCatV1.15B25,2013-07-15 12:45:00,
2013-07-15 05:50:00,55.0,43.0,29.80,East,82,0.0,1.0,64,0.00,,,0.00,WeatherCatV1.15B25,2013-07-15 12:50:00,
2013-07-15 05:55:00,53.1,43.6,29.80,East,82,0.0,0.0,70,0.00,,,0.00,WeatherCatV1.15B25,2013-07-15 12:55:00,
2013-07-15 06:00:00,51.7,44.0,29.81,East,82,0.0,0.0,75,0.00,,,0.00,WeatherCatV1.15B25,2013-07-15 13:00:00,
2013-07-15 06:05:00,50.6,43.7,29.81,East,82,0.0,0.0,77,0.00,,,0.00,WeatherCatV1.15B25,2013-07-15 13:05:00,
2013-07-15 06:10:00,49.9,43.3,29.81,East,82,0.0,0.0,78,0.00,,,0.00,WeatherCatV1.15B25,2013-07-15 13:10:00,
2013-07-15 06:15:00,49.0,42.1,29.81,East,82,0.0,0.0,77,0.00,,,0.00,WeatherCatV1.15B25,2013-07-15 13:15:00,
2013-07-15 06:20:00,48.5,38.4,29.81,East,82,0.0,0.0,68,0.00,,,0.00,WeatherCatV1.15B25,2013-07-15 13:20:00,
2013-07-15 06:25:00,48.4,38.0,29.81,East,82,0.0,0.0,67,0.00,,,0.00,WeatherCatV1.15B25,2013-07-15 13:25:00,
2013-07-15 06:30:00,48.5,38.0,29.81,East,82,0.0,0.0,67,0.00,,,0.00,WeatherCatV1.15B25,2013-07-15 13:30:00,
2013-07-15 06:35:00,48.6,38.9,29.81,East,82,0.0,0.0,69,0.00,,,0.00,WeatherCatV1.15B25,2013-07-15 13:35:00,
2013-07-15 06:40:00,48.5,40.2,29.81,East,82,0.0,0.0,73,0.00,,,0.00,WeatherCatV1.15B25,2013-07-15 13:40:00,
2013-07-15 06:45:00,48.2,40.3,29.81,East,82,0.0,0.0,74,0.00,,,0.00,WeatherCatV1.15B25,2013-07-15 13:45:00,
2013-07-15 06:50:00,48.1,39.5,29.81,East,82,0.0,0.0,72,0.00,,,0.00,WeatherCatV1.15B25,2013-07-15 13:50:00,
2013-07-15 06:55:00,48.2,38.5,29.81,East,82,0.0,1.0,69,0.00,,,0.00,WeatherCatV1.15B25,2013-07-15 13:55:00,
2013-07-15 07:00:00,48.5,38.4,29.81,East,82,0.0,0.0,68,0.00,,,0.00,WeatherCatV1.15B25,2013-07-15 14:00:00,
2013-07-15 07:05:00,48.9,39.6,29.81,East,82,0.0,0.0,70,0.00,,,0.00,WeatherCatV1.15B25,2013-07-15 14:05:00,
2013-07-15 07:10:00,49.1,40.1,29.81,East,82,0.0,0.0,71,0.00,,,0.00,WeatherCatV1.15B25,2013-07-15 14:10:00,
2013-07-15 07:15:00,49.3,40.3,29.81,East,82,0.0,0.0,71,0.00,,,0.00,WeatherCatV1.15B25,2013-07-15 14:15:00,
2013-07-15 07:20:00,49.7,41.0,29.81,East,82,0.0,0.0,72,0.00,,,0.00,WeatherCatV1.15B25,2013-07-15 14:20:00,
2013-07-15 07:25:00,50.2,41.9,29.81,East,82,0.0,0.0,73,0.00,,,0.00,WeatherCatV1.15B25,2013-07-15 14:25:00,
2013-07-15 07:30:00,50.4,41.0,29.81,East,82,0.0,0.0,70,0.00,,,0.00,WeatherCatV1.15B25,2013-07-15 14:30:00,
2013-07-15 07:35:00,50.9,38.8,29.81,East,82,0.0,0.0,63,0.00,,,0.00,WeatherCatV1.15B25,2013-07-15 14:35:00,
2013-07-15 07:40:00,51.1,43.8,29.81,East,82,0.0,0.0,76,0.00,,,0.00,WeatherCatV1.15B25,2013-07-15 14:40:00,
2013-07-15 07:45:00,51.0,44.7,29.82,East,82,0.0,0.0,79,0.00,,,0.00,WeatherCatV1.15B25,2013-07-15 14:45:00,
2013-07-15 07:50:00,50.7,42.4,29.82,East,82,0.0,0.0,73,0.00,,,0.00,WeatherCatV1.15B25,2013-07-15 14:50:00,
2013-07-15 07:55:00,50.6,42.3,29.82,East,82,0.0,0.0,73,0.00,,,0.00,WeatherCatV1.15B25,2013-07-15 14:55:00,
2013-07-15 08:00:00,50.6,45.0,29.82,East,82,0.0,1.0,81,0.00,,,0.00,WeatherCatV1.15B25,2013-07-15 15:00:00,
2013-07-15 08:05:00,50.4,45.4,29.82,East,98,0.0,1.0,83,0.00,,,0.00,WeatherCatV1.15B25,2013-07-15 15:05:00,
2013-07-15 08:10:00,50.2,45.9,29.82,SE,128,1.0,2.0,85,0.00,,,0.00,WeatherCatV1.15B25,2013-07-15 15:10:00,
2013-07-15 08:15:00,50.1,46.4,29.82,SSE,153,2.0,2.0,87,0.00,,,0.00,WeatherCatV1.15B25,2013-07-15 15:15:00,
2013-07-15 08:20:00,50.0,46.3,29.82,SSE,152,0.0,1.0,87,0.00,,,0.00,WeatherCatV1.15B25,2013-07-15 15:20:00,
2013-07-15 08:25:00,50.0,46.3,29.82,SSE,153,0.0,1.0,87,0.00,,,0.00,WeatherCatV1.15B25,2013-07-15 15:25:00,
2013-07-15 08:27:00,50.1,46.1,29.82,SSE,152,0.0,1.0,86,0.00,,,0.00,WeatherCatV1.15B25,2013-07-15 15:27:00,
2013-07-15 08:32:00,50.3,46.6,29.82,SSE,152,0.0,1.0,87,0.00,,,0.00,WeatherCatV1.15B25,2013-07-15 15:32:00,
2013-07-15 08:37:00,50.5,46.8,29.82,SSE,152,1.0,1.0,87,0.00,,,0.00,WeatherCatV1.15B25,2013-07-15 15:37:00,
2013-07-15 08:42:00,50.8,46.8,29.82,SSE,152,0.0,1.0,86,0.00,,,0.00,WeatherCatV1.15B25,2013-07-15 15:42:00,
2013-07-15 08:47:00,51.2,47.2,29.82,SSE,150,0.0,1.0,86,0.00,,,0.00,WeatherCatV1.15B25,2013-07-15 15:47:00,
2013-07-15 08:52:00,51.7,47.3,29.82,SSE,150,0.0,2.0,85,0.00,,,0.00,WeatherCatV1.15B25,2013-07-15 15:52:00,
2013-07-15 08:57:00,52.1,47.7,29.82,SSE,158,0.0,2.0,85,0.00,,,0.00,WeatherCatV1.15B25,2013-07-15 15:57:00,
2013-07-15 09:02:00,52.4,48.0,29.82,SSE,150,0.0,0.0,85,0.00,,,0.00,WeatherCatV1.15B25,2013-07-15 16:02:00,
2013-07-15 09:07:00,52.8,48.4,29.82,SSE,150,1.0,1.0,85,0.00,,,0.00,WeatherCatV1.15B25,2013-07-15 16:07:00,
2013-07-15 09:12:00,53.2,48.5,29.82,SSE,150,1.0,1.0,84,0.00,,,0.00,WeatherCatV1.15B25,2013-07-15 16:12:00,
2013-07-15 09:17:00,53.7,48.7,29.82,SSE,156,1.0,3.0,83,0.00,,,0.00,WeatherCatV1.15B25,2013-07-15 16:17:00,
2013-07-15 09:22:00,54.0,49.0,29.82,SSE,156,0.0,1.0,83,0.00,,,0.00,WeatherCatV1.15B25,2013-07-15 16:22:00,
2013-07-15 09:27:00,54.4,49.0,29.82,SE,145,0.0,1.0,82,0.00,,,0.00,WeatherCatV1.15B25,2013-07-15 16:27:00,
2013-07-15 09:32:00,54.7,49.3,29.82,SSE,150,0.0,1.0,82,0.00,,,0.00,WeatherCatV1.15B25,2013-07-15 16:32:00,
2013-07-15 09:37:00,55.1,49.7,29.82,SE,145,0.0,2.0,82,0.00,,,0.00,WeatherCatV1.15B25,2013-07-15 16:37:00,
2013-07-15 09:42:00,55.6,49.9,29.82,SE,146,1.0,2.0,81,0.00,,,0.00,WeatherCatV1.15B25,2013-07-15 16:42:00,
2013-07-15 09:47:00,56.1,50.3,29.82,SE,143,0.0,1.0,81,0.00,,,0.00,WeatherCatV1.15B25,2013-07-15 16:47:00,
2013-07-15 09:52:00,56.2,50.1,29.82,SE,143,0.0,0.0,80,0.00,,,0.00,WeatherCatV1.15B25,2013-07-15 16:52:00,
2013-07-15 09:57:00,56.5,50.4,29.82,SE,135,0.0,2.0,80,0.00,,,0.00,WeatherCatV1.15B25,2013-07-15 16:57:00,
2013-07-15 10:02:00,56.9,50.8,29.82,SE,139,0.0,2.0,80,0.00,,,0.00,WeatherCatV1.15B25,2013-07-15 17:02:00,
2013-07-15 10:07:00,57.3,51.2,29.82,SE,139,0.0,1.0,80,0.00,,,0.00,WeatherCatV1.15B25,2013-07-15 17:07:00,
2013-07-15 10:12:00,57.6,51.1,29.82,SE,142,0.0,2.0,79,0.00,,,0.00,WeatherCatV1.15B25,2013-07-15 17:12:00,
2013-07-15 10:17:00,57.9,51.4,29.83,SSE,147,2.0,3.0,79,0.00,,,0.00,WeatherCatV1.15B25,2013-07-15 17:17:00,
2013-07-15 10:22:00,58.0,51.2,29.83,SSE,161,0.0,0.0,78,0.00,,,0.00,WeatherCatV1.15B25,2013-07-15 17:22:00,
2013-07-15 10:27:00,58.1,51.6,29.83,SSE,153,0.0,2.0,79,0.00,,,0.00,WeatherCatV1.15B25,2013-07-15 17:27:00,
2013-07-15 10:32:00,58.6,52.1,29.83,SE,135,0.0,1.0,79,0.00,,,0.00,WeatherCatV1.15B25,2013-07-15 17:32:00,
2013-07-15 10:37:00,58.9,51.7,29.83,SE,144,0.0,2.0,77,0.00,,,0.00,WeatherCatV1.15B25,2013-07-15 17:37:00,
2013-07-15 10:42:00,59.2,52.0,29.83,SSE,147,1.0,2.0,77,0.00,,,0.00,WeatherCatV1.15B25,2013-07-15 17:42:00,
2013-07-15 10:47:00,59.3,52.1,29.83,SE,145,0.0,3.0,77,0.00,,,0.00,WeatherCatV1.15B25,2013-07-15 17:47:00,
2013-07-15 10:52:00,59.7,52.5,29.83,SSE,150,0.0,3.0,77,0.00,,,0.00,WeatherCatV1.15B25,2013-07-15 17:52:00,
2013-07-15 10:57:00,60.1,52.1,29.83,NW,305,0.0,2.0,75,0.00,,,0.00,WeatherCatV1.15B25,2013-07-15 17:57:00,
2013-07-15 11:02:00,60.4,52.8,29.83,SSE,168,0.0,2.0,76,0.00,,,0.00,WeatherCatV1.15B25,2013-07-15 18:02:00,
2013-07-15 11:07:00,60.9,52.9,29.83,SE,138,1.0,2.0,75,0.00,,,0.00,WeatherCatV1.15B25,2013-07-15 18:07:00,
2013-07-15 11:12:00,61.4,53.0,29.83,SSE,158,2.0,2.0,74,0.00,,,0.00,WeatherCatV1.15B25,2013-07-15 18:12:00,
2013-07-15 11:17:00,61.6,52.9,29.83,SSE,150,1.0,1.0,73,0.00,,,0.00,WeatherCatV1.15B25,2013-07-15 18:17:00,
2013-07-15 11:22:00,61.8,52.7,29.83,SSW,197,0.0,0.0,72,0.00,,,0.00,WeatherCatV1.15B25,2013-07-15 18:22:00,
2013-07-15 11:27:00,62.0,53.2,29.83,SE,138,1.0,2.0,73,0.00,,,0.00,WeatherCatV1.15B25,2013-07-15 18:27:00,
2013-07-15 11:32:00,62.6,53.1,29.83,SSE,160,1.0,1.0,71,0.00,,,0.00,WeatherCatV1.15B25,2013-07-15 18:32:00,
2013-07-15 11:37:00,63.0,53.4,29.83,SSE,151,1.0,2.0,71,0.00,,,0.00,WeatherCatV1.15B25,2013-07-15 18:37:00,
2013-07-15 11:42:00,63.2,53.2,29.83,SSE,156,0.0,1.0,70,0.00,,,0.00,WeatherCatV1.15B25,2013-07-15 18:42:00,
2013-07-15 11:47:00,63.3,53.7,29.83,SSE,159,2.0,2.0,71,0.00,,,0.00,WeatherCatV1.15B25,2013-07-15 18:47:00,
2013-07-15 11:52:00,64.0,53.6,29.83,SE,137,2.0,2.0,69,0.00,,,0.00,WeatherCatV1.15B25,2013-07-15 18:52:00,
2013-07-15 11:57:00,64.6,53.8,29.83,SE,144,1.0,2.0,68,0.00,,,0.00,WeatherCatV1.15B25,2013-07-15 18:57:00,
2013-07-15 12:02:00,65.0,53.8,29.83,SSE,159,0.0,1.0,67,0.00,,,0.00,WeatherCatV1.15B25,2013-07-15 19:02:00,
2013-07-15 12:07:00,65.5,53.8,29.83,ESE,116,1.0,1.0,66,0.00,,,0.00,WeatherCatV1.15B25,2013-07-15 19:07:00,
2013-07-15 12:12:00,66.3,54.2,29.83,SE,145,0.0,1.0,65,0.00,,,0.00,WeatherCatV1.15B25,2013-07-15 19:12:00,
2013-07-15 12:17:00,67.0,54.8,29.83,SE,140,0.0,2.0,65,0.00,,,0.00,WeatherCatV1.15B25,2013-07-15 19:17:00,
2013-07-15 12:22:00,67.3,54.3,29.83,SE,142,1.0,2.0,63,0.00,,,0.00,WeatherCatV1.15B25,2013-07-15 19:22:00,
2013-07-15 12:27:00,67.5,54.0,29.83,SSE,150,2.0,5.0,62,0.00,,,0.00,WeatherCatV1.15B25,2013-07-15 19:27:00,
2013-07-15 12:32:00,67.4,54.4,29.84,SSE,147,2.0,2.0,63,0.00,,,0.00,WeatherCatV1.15B25,2013-07-15 19:32:00,
2013-07-15 12:37:00,67.7,53.8,29.84,SSE,153,0.0,3.0,61,0.00,,,0.00,WeatherCatV1.15B25,2013-07-15 19:37:00,
2013-07-15 12:42:00,67.8,54.3,29.84,SE,146,1.0,3.0,62,0.00,,,0.00,WeatherCatV1.15B25,2013-07-15 19:42:00,
2013-07-15 12:47:00,68.3,54.8,29.84,SE,133,1.0,1.0,62,0.00,,,0.00,WeatherCatV1.15B25,2013-07-15 19:47:00,
2013-07-15 12:52:00,68.5,54.1,29.84,SE,142,2.0,3.0,60,0.00,,,0.00,WeatherCatV1.15B25,2013-07-15 19:52:00,
2013-07-15 12:57:00,68.4,54.4,29.84,SSE,147,2.0,2.0,61,0.00,,,0.00,WeatherCatV1.15B25,2013-07-15 19:57:00,
2013-07-15 13:02:00,68.3,53.9,29.84,SE,144,0.0,0.0,60,0.00,,,0.00,WeatherCatV1.15B25,2013-07-15 20:02:00,
2013-07-15 13:07:00,68.2,54.2,29.84,South,173,0.0,1.0,61,0.00,,,0.00,WeatherCatV1.15B25,2013-07-15 20:07:00,
2013-07-15 13:12:00,68.5,54.1,29.84,SSE,161,0.0,1.0,60,0.00,,,0.00,WeatherCatV1.15B25,2013-07-15 20:12:00,
2013-07-15 13:17:00,68.9,54.4,29.84,SE,144,0.0,1.0,60,0.00,,,0.00,WeatherCatV1.15B25,2013-07-15 20:17:00,
2013-07-15 13:22:00,69.1,53.7,29.84,SE,141,0.0,1.0,58,0.00,,,0.00,WeatherCatV1.15B25,2013-07-15 20:22:00,
2013-07-15 13:27:00,69.1,54.2,29.84,SE,143,2.0,2.0,59,0.00,,,0.00,WeatherCatV1.15B25,2013-07-15 20:27:00,
2013-07-15 13:32:00,69.6,54.2,29.84,SSE,152,0.0,0.0,58,0.00,,,0.00,WeatherCatV1.15B25,2013-07-15 20:32:00,
2013-07-15 13:37:00,70.3,54.3,29.84,SSE,147,0.0,1.0,57,0.00,,,0.00,WeatherCatV1.15B25,2013-07-15 20:37:00,
2013-07-15 13:42:00,70.1,54.1,29.84,SSE,156,0.0,1.0,57,0.00,,,0.00,WeatherCatV1.15B25,2013-07-15 20:42:00,
2013-07-15 13:47:00,69.8,53.9,29.84,SSE,150,3.0,3.0,57,0.00,,,0.00,WeatherCatV1.15B25,2013-07-15 20:47:00,
2013-07-15 13:52:00,69.2,53.3,29.84,South,171,0.0,1.0,57,0.00,,,0.00,WeatherCatV1.15B25,2013-07-15 20:52:00,
2013-07-15 13:57:00,69.4,54.4,29.84,SSE,156,0.0,2.0,59,0.00,,,0.00,WeatherCatV1.15B25,2013-07-15 20:57:00,
2013-07-15 14:02:00,70.0,54.1,29.83,SE,144,1.0,3.0,57,0.00,,,0.00,WeatherCatV1.15B25,2013-07-15 21:02:00,
2013-07-15 14:07:00,70.4,53.9,29.83,ENE,69,1.0,2.0,56,0.00,,,0.00,WeatherCatV1.15B25,2013-07-15 21:07:00,
2013-07-15 14:12:00,71.0,54.5,29.83,SSE,149,1.0,2.0,56,0.00,,,0.00,WeatherCatV1.15B25,2013-07-15 21:12:00,
2013-07-15 14:17:00,70.7,53.7,29.83,SE,145,0.0,1.0,55,0.00,,,0.00,WeatherCatV1.15B25,2013-07-15 21:17:00,
2013-07-15 14:22:00,70.6,53.6,29.83,SSE,154,0.0,3.0,55,0.00,,,0.00,WeatherCatV1.15B25,2013-07-15 21:22:00,
2013-07-15 14:27:00,70.3,53.4,29.83,SSE,154,0.0,3.0,55,0.00,,,0.00,WeatherCatV1.15B25,2013-07-15 21:27:00,
2013-07-15 14:32:00,70.1,53.7,29.83,NE,54,0.0,0.0,56,0.00,,,0.00,WeatherCatV1.15B25,2013-07-15 21:32:00,
2013-07-15 14:37:00,70.1,53.7,29.83,SE,142,3.0,3.0,56,0.00,,,0.00,WeatherCatV1.15B25,2013-07-15 21:37:00,
2013-07-15 14:42:00,69.8,53.4,29.83,SSE,148,1.0,2.0,56,0.00,,,0.00,WeatherCatV1.15B25,2013-07-15 21:42:00,
2013-07-15 14:47:00,69.4,53.5,29.83,SE,146,0.0,2.0,57,0.00,,,0.00,WeatherCatV1.15B25,2013-07-15 21:47:00,
2013-07-15 14:52:00,69.2,53.3,29.83,SE,146,0.0,1.0,57,0.00,,,0.00,WeatherCatV1.15B25,2013-07-15 21:52:00,
2013-07-15 14:57:00,68.9,53.5,29.83,SE,144,1.0,2.0,58,0.00,,,0.00,WeatherCatV1.15B25,2013-07-15 21:57:00,
2013-07-15 15:02:00,68.6,53.2,29.83,SSE,148,0.0,1.0,58,0.00,,,0.00,WeatherCatV1.15B25,2013-07-15 22:02:00,
2013-07-15 15:07:00,68.5,53.6,29.83,SSE,150,0.0,1.0,59,0.00,,,0.00,WeatherCatV1.15B25,2013-07-15 22:07:00,
2013-07-15 15:12:00,68.3,53.4,29.83,SE,143,1.0,2.0,59,0.00,,,0.00,WeatherCatV1.15B25,2013-07-15 22:12:00,
2013-07-15 15:17:00,68.2,53.8,29.83,SE,145,0.0,1.0,60,0.00,,,0.00,WeatherCatV1.15B25,2013-07-15 22:17:00,
2013-07-15 15:22:00,68.1,53.7,29.83,South,169,1.0,1.0,60,0.00,,,0.00,WeatherCatV1.15B25,2013-07-15 22:22:00,
2013-07-15 15:27:00,68.1,53.7,29.83,SE,145,1.0,2.0,60,0.00,,,0.00,WeatherCatV1.15B25,2013-07-15 22:27:00,
2013-07-15 15:32:00,68.0,53.6,29.82,SE,131,0.0,2.0,60,0.00,,,0.00,WeatherCatV1.15B25,2013-07-15 22:32:00,
2013-07-15 15:37:00,67.8,53.8,29.82,SE,130,2.0,2.0,61,0.00,,,0.00,WeatherCatV1.15B25,2013-07-15 22:37:00,
2013-07-15 15:42:00,67.4,53.5,29.82,SE,138,0.0,0.0,61,0.00,,,0.00,WeatherCatV1.15B25,2013-07-15 22:42:00,
2013-07-15 15:47:00,67.0,53.5,29.82,SE,129,0.0,1.0,62,0.00,,,0.00,WeatherCatV1.15B25,2013-07-15 22:47:00,
2013-07-15 15:52:00,66.7,53.7,29.82,SE,129,0.0,1.0,63,0.00,,,0.00,WeatherCatV1.15B25,2013-07-15 22:52:00,
2013-07-15 15:57:00,66.7,53.3,29.82,SE,136,0.0,0.0,62,0.00,,,0.00,WeatherCatV1.15B25,2013-07-15 22:57:00,
2013-07-15 16:02:00,66.8,53.8,29.81,SE,141,1.0,1.0,63,0.00,,,0.00,WeatherCatV1.15B25,2013-07-15 23:02:00,
2013-07-15 16:07:00,66.8,53.8,29.81,SE,146,0.0,2.0,63,0.00,,,0.00,WeatherCatV1.15B25,2013-07-15 23:07:00,
2013-07-15 16:12:00,66.6,53.6,29.81,SE,131,0.0,2.0,63,0.00,,,0.00,WeatherCatV1.15B25,2013-07-15 23:12:00,
2013-07-15 16:17:00,66.3,53.7,29.81,SE,133,0.0,3.0,64,0.00,,,0.00,WeatherCatV1.15B25,2013-07-15 23:17:00,
2013-07-15 16:22:00,66.0,53.5,29.81,ESE,123,0.0,2.0,64,0.00,,,0.00,WeatherCatV1.15B25,2013-07-15 23:22:00,
2013-07-15 16:27:00,65.8,53.7,29.81,SE,132,1.0,2.0,65,0.00,,,0.00,WeatherCatV1.15B25,2013-07-15 23:27:00,
2013-07-15 16:32:00,65.6,53.5,29.81,SE,132,0.0,2.0,65,0.00,,,0.00,WeatherCatV1.15B25,2013-07-15 23:32:00,
2013-07-15 16:37:00,65.3,53.6,29.81,SSE,159,0.0,1.0,66,0.00,,,0.00,WeatherCatV1.15B25,2013-07-15 23:37:00,
2013-07-15 16:42:00,65.2,53.5,29.81,SSE,160,1.0,1.0,66,0.00,,,0.00,WeatherCatV1.15B25,2013-07-15 23:42:00,
2013-07-15 16:47:00,65.0,53.8,29.81,SSE,159,0.0,0.0,67,0.00,,,0.00,WeatherCatV1.15B25,2013-07-15 23:47:00,
2013-07-15 16:52:00,65.0,53.8,29.81,SE,146,0.0,2.0,67,0.00,,,0.00,WeatherCatV1.15B25,2013-07-15 23:52:00,
2013-07-15 16:57:00,64.7,53.5,29.81,ESE,104,0.0,0.0,67,0.00,,,0.00,WeatherCatV1.15B25,2013-07-15 23:57:00,
2013-07-15 17:02:00,64.4,53.6,29.81,SE,135,1.0,2.0,68,0.00,,,0.00,WeatherCatV1.15B25,2013-07-16 00:02:00,
2013-07-15 17:07:00,63.9,53.5,29.81,SE,134,1.0,1.0,69,0.00,,,0.00,WeatherCatV1.15B25,2013-07-16 00:07:00,
2013-07-15 17:12:00,63.6,53.6,29.81,SSE,147,0.0,0.0,70,0.00,,,0.00,WeatherCatV1.15B25,2013-07-16 00:12:00,
2013-07-15 17:17:00,63.4,53.4,29.80,SE,135,0.0,1.0,70,0.00,,,0.00,WeatherCatV1.15B25,2013-07-16 00:17:00,
2013-07-15 17:22:00,63.2,53.6,29.80,ESE,111,0.0,2.0,71,0.00,,,0.00,WeatherCatV1.15B25,2013-07-16 00:22:00,
2013-07-15 17:27:00,63.0,53.4,29.80,SE,131,0.0,2.0,71,0.00,,,0.00,WeatherCatV1.15B25,2013-07-16 00:27:00,
2013-07-15 17:32:00,62.7,53.2,29.80,SE,135,0.0,2.0,71,0.00,,,0.00,WeatherCatV1.15B25,2013-07-16 00:32:00,
2013-07-15 17:37:00,62.5,53.3,29.80,SE,145,0.0,1.0,72,0.00,,,0.00,WeatherCatV1.15B25,2013-07-16 00:37:00,
2013-07-15 17:42:00,62.1,53.3,29.80,SE,142,0.0,1.0,73,0.00,,,0.00,WeatherCatV1.15B25,2013-07-16 00:42:00,
2013-07-15 17:47:00,61.7,53.0,29.80,SE,142,0.0,1.0,73,0.00,,,0.00,WeatherCatV1.15B25,2013-07-16 00:47:00,
2013-07-15 17:50:00,61.5,53.1,29.80,SE,142,0.0,0.0,74,0.00,,,0.00,WeatherCatV1.15B25,2013-07-16 00:50:00,
2013-07-15 17:56:00,61.3,52.9,29.80,SE,141,0.0,1.0,74,0.00,,,0.00,WeatherCatV1.15B25,2013-07-16 00:56:00,
2013-07-15 18:01:00,61.0,53.0,29.80,SE,141,0.0,0.0,75,0.00,,,0.00,WeatherCatV1.15B25,2013-07-16 01:01:00,
2013-07-15 18:06:00,60.8,52.8,29.80,ESE,121,0.0,2.0,75,0.00,,,0.00,WeatherCatV1.15B25,2013-07-16 01:06:00,
2013-07-15 18:11:00,60.6,53.0,29.80,ESE,121,1.0,1.0,76,0.00,,,0.00,WeatherCatV1.15B25,2013-07-16 01:11:00,
2013-07-15 18:16:00,60.5,52.9,29.80,SE,128,0.0,0.0,76,0.00,,,0.00,WeatherCatV1.15B25,2013-07-16 01:16:00,
2013-07-15 18:21:00,60.2,53.0,29.80,SE,128,0.0,1.0,77,0.00,,,0.00,WeatherCatV1.15B25,2013-07-16 01:21:00,
2013-07-15 18:35:00,59.3,52.8,29.79,SE,129,1.0,1.0,79,0.00,,,0.00,WeatherCatV1.20B785,2013-07-16 01:35:00,
2013-07-15 18:40:00,59.0,52.5,29.79,SE,129,0.0,0.0,79,0.00,,,0.00,WeatherCatV1.20B785,2013-07-16 01:40:00,
2013-07-15 18:45:00,58.8,52.6,29.79,SE,129,0.0,1.0,80,0.00,,,0.00,WeatherCatV1.20B785,2013-07-16 01:45:00,
2013-07-15 18:50:00,58.5,52.3,29.79,SE,129,0.0,1.0,80,0.00,,,0.00,WeatherCatV1.20B785,2013-07-16 01:50:00,
2013-07-15 18:55:00,58.3,52.5,29.79,SE,129,0.0,0.0,81,0.00,,,0.00,WeatherCatV1.20B785,2013-07-16 01:55:00,
2013-07-15 19:00:00,58.0,52.2,29.80,SE,129,0.0,1.0,81,0.00,,,0.00,WeatherCatV1.20B785,2013-07-16 02:00:00,
2013-07-15 19:05:00,57.7,51.9,29.80,SE,128,0.0,0.0,81,0.00,,,0.00,WeatherCatV1.20B785,2013-07-16 02:05:00,
2013-07-15 19:10:00,57.5,52.0,29.80,SE,128,0.0,1.0,82,0.00,,,0.00,WeatherCatV1.20B785,2013-07-16 02:10:00,
2013-07-15 19:15:00,57.3,52.2,29.80,SE,128,0.0,0.0,83,0.00,,,0.00,WeatherCatV1.20B785,2013-07-16 02:15:00,
2013-07-15 19:20:00,57.0,51.9,29.80,SE,128,0.0,0.0,83,0.00,,,0.00,WeatherCatV1.20B785,2013-07-16 02:20:00,
2013-07-15 19:25:00,56.8,51.7,29.80,SE,128,0.0,0.0,83,0.00,,,0.00,WeatherCatV1.20B785,2013-07-16 02:25:00,
2013-07-15 19:30:00,56.7,51.9,29.80,SE,128,0.0,0.0,84,0.00,,,0.00,WeatherCatV1.20B785,2013-07-16 02:30:00,
2013-07-15 19:35:00,56.4,51.6,29.80,SE,128,0.0,0.0,84,0.00,,,0.00,WeatherCatV1.20B785,2013-07-16 02:35:00,
2013-07-15 19:40:00,56.2,51.4,29.80,SE,128,0.0,0.0,84,0.00,,,0.00,WeatherCatV1.20B785,2013-07-16 02:40:00,
2013-07-15 19:45:00,55.9,51.5,29.80,SE,128,0.0,0.0,85,0.00,,,0.00,WeatherCatV1.20B785,2013-07-16 02:45:00,
2013-07-15 19:50:00,55.7,51.3,29.80,SE,128,0.0,0.0,85,0.00,,,0.00,WeatherCatV1.20B785,2013-07-16 02:50:00,
2013-07-15 19:55:00,55.5,51.1,29.80,SE,128,0.0,0.0,85,0.00,,,0.00,WeatherCatV1.20B785,2013-07-16 02:55:00,
2013-07-15 20:00:00,55.3,50.9,29.81,SE,128,0.0,0.0,85,0.00,,,0.00,WeatherCatV1.20B785,2013-07-16 03:00:00,
2013-07-15 20:05:00,54.9,50.8,29.81,SE,128,0.0,0.0,86,0.00,,,0.00,WeatherCatV1.20B785,2013-07-16 03:05:00,
2013-07-15 20:10:00,54.7,50.9,29.81,SE,128,0.0,0.0,87,0.00,,,0.00,WeatherCatV1.20B785,2013-07-16 03:10:00,
2013-07-15 20:15:00,54.5,50.7,29.81,SE,128,0.0,0.0,87,0.00,,,0.00,WeatherCatV1.20B785,2013-07-16 03:15:00,
2013-07-15 20:20:00,54.2,50.4,29.81,SE,128,0.0,0.0,87,0.00,,,0.00,WeatherCatV1.20B785,2013-07-16 03:20:00,
2013-07-15 20:25:00,54.1,50.3,29.81,SE,128,0.0,0.0,87,0.00,,,0.00,WeatherCatV1.20B785,2013-07-16 03:25:00,
2013-07-15 20:30:00,53.8,50.0,29.81,SE,128,0.0,0.0,87,0.00,,,0.00,WeatherCatV1.20B785,2013-07-16 03:30:00,
2013-07-15 20:35:00,53.5,49.7,29.81,SE,128,0.0,0.0,87,0.00,,,0.00,WeatherCatV1.20B785,2013-07-16 03:35:00,
2013-07-15 20:40:00,53.3,49.8,29.81,SE,128,0.0,0.0,88,0.00,,,0.00,WeatherCatV1.20B785,2013-07-16 03:40:00,
2013-07-15 20:45:00,53.2,50.0,29.81,SE,128,0.0,0.0,89,0.00,,,0.00,WeatherCatV1.20B785,2013-07-16 03:45:00,
2013-07-15 20:50:00,53.0,50.1,29.81,SE,128,0.0,0.0,90,0.00,,,0.00,WeatherCatV1.20B785,2013-07-16 03:50:00,
2013-07-15 20:55:00,52.9,50.3,29.81,SE,128,0.0,0.0,91,0.00,,,0.00,WeatherCatV1.20B785,2013-07-16 03:55:00,
2013-07-15 21:00:00,52.9,50.3,29.81,SE,128,0.0,1.0,91,0.00,,,0.00,WeatherCatV1.20B785,2013-07-16 04:00:00,
2013-07-15 21:01:00,52.9,50.3,29.81,SE,128,0.0,1.0,91,0.00,,,0.00,WeatherCatV1.20B785,2013-07-16 04:01:00,
2013-07-15 21:06:00,52.8,50.5,29.81,SE,128,0.0,0.0,92,0.00,,,0.00,WeatherCatV1.20B785,2013-07-16 04:06:00,
2013-07-15 21:11:00,52.8,50.5,29.81,SE,128,0.0,0.0,92,0.00,,,0.00,WeatherCatV1.20B785,2013-07-16 04:11:00,
2013-07-15 21:16:00,52.7,50.4,29.81,SE,128,0.0,0.0,92,0.00,,,0.00,WeatherCatV1.20B785,2013-07-16 04:16:00,
2013-07-15 21:21:00,52.6,50.3,29.81,SE,128,0.0,1.0,92,0.00,,,0.00,WeatherCatV1.20B785,2013-07-16 04:21:00,
2013-07-15 21:26:00,52.4,50.1,29.81,SE,129,0.0,1.0,92,0.00,,,0.00,WeatherCatV1.20B785,2013-07-16 04:26:00,
2013-07-15 21:31:00,52.3,50.0,29.82,SE,129,0.0,0.0,92,0.00,,,0.00,WeatherCatV1.20B785,2013-07-16 04:31:00,
2013-07-15 21:36:00,52.3,50.0,29.82,SE,129,0.0,0.0,92,0.00,,,0.00,WeatherCatV1.20B785,2013-07-16 04:36:00,
2013-07-15 21:41:00,52.2,50.0,29.82,SE,129,0.0,0.0,92,0.00,,,0.00,WeatherCatV1.20B785,2013-07-16 04:41:00,
2013-07-15 21:46:00,52.1,49.8,29.82,SE,129,0.0,0.0,92,0.00,,,0.00,WeatherCatV1.20B785,2013-07-16 04:46:00,
2013-07-15 21:51:00,52.1,49.8,29.82,SE,129,0.0,0.0,92,0.00,,,0.00,WeatherCatV1.20B785,2013-07-16 04:51:00,
2013-07-15 21:56:00,51.9,49.9,29.82,SE,129,0.0,0.0,93,0.00,,,0.00,WeatherCatV1.20B785,2013-07-16 04:56:00,
2013-07-15 22:01:00,51.8,49.8,29.83,SE,129,0.0,0.0,93,0.00,,,0.00,WeatherCatV1.20B785,2013-07-16 05:01:00,
2013-07-15 22:06:00,51.7,49.7,29.83,SE,129,0.0,0.0,93,0.00,,,0.00,WeatherCatV1.20B785,2013-07-16 05:06:00,
2013-07-15 22:11:00,51.7,49.7,29.83,SE,129,0.0,0.0,93,0.00,,,0.00,WeatherCatV1.20B785,2013-07-16 05:11:00,
2013-07-15 22:16:00,51.7,49.7,29.83,SE,129,0.0,0.0,93,0.00,,,0.00,WeatherCatV1.20B785,2013-07-16 05:16:00,
2013-07-15 22:21:00,51.6,49.6,29.83,SE,129,0.0,0.0,93,0.00,,,0.00,WeatherCatV1.20B785,2013-07-16 05:21:00,
2013-07-15 22:26:00,51.5,49.5,29.83,SE,129,0.0,1.0,93,0.00,,,0.00,WeatherCatV1.20B785,2013-07-16 05:26:00,
2013-07-15 22:31:00,51.4,49.4,29.83,SE,129,0.0,0.0,93,0.00,,,0.00,WeatherCatV1.20B785,2013-07-16 05:31:00,
2013-07-15 22:36:00,51.2,49.2,29.83,SE,129,0.0,0.0,93,0.00,,,0.00,WeatherCatV1.20B785,2013-07-16 05:36:00,
2013-07-15 22:41:00,51.1,49.4,29.83,SE,129,0.0,0.0,94,0.00,,,0.00,WeatherCatV1.20B785,2013-07-16 05:41:00,
2013-07-15 22:46:00,51.0,49.3,29.82,SE,129,0.0,0.0,94,0.00,,,0.00,WeatherCatV1.20B785,2013-07-16 05:46:00,
2013-07-15 22:51:00,51.0,49.3,29.82,SE,129,0.0,0.0,94,0.00,,,0.00,WeatherCatV1.20B785,2013-07-16 05:51:00,
2013-07-15 22:56:00,50.9,49.2,29.82,SE,129,0.0,0.0,94,0.00,,,0.00,WeatherCatV1.20B785,2013-07-16 05:56:00,
2013-07-15 23:01:00,50.9,49.2,29.82,SE,129,0.0,0.0,94,0.00,,,0.00,WeatherCatV1.20B785,2013-07-16 06:01:00,
2013-07-15 23:06:00,50.8,49.1,29.82,SE,129,0.0,0.0,94,0.00,,,0.00,WeatherCatV1.20B785,2013-07-16 06:06:00,
2013-07-15 23:11:00,50.8,49.1,29.82,SE,129,0.0,0.0,94,0.00,,,0.00,WeatherCatV1.20B785,2013-07-16 06:11:00,
2013-07-15 23:16:00,50.7,49.0,29.82,SE,129,0.0,2.0,94,0.00,,,0.00,WeatherCatV1.20B785,2013-07-16 06:16:00,
2013-07-15 23:21:00,50.7,49.0,29.82,SE,129,0.0,0.0,94,0.00,,,0.00,WeatherCatV1.20B785,2013-07-16 06:21:00,
2013-07-15 23:26:00,50.7,49.0,29.82,SE,129,0.0,0.0,94,0.00,,,0.00,WeatherCatV1.20B785,2013-07-16 06:26:00,
2013-07-15 23:31:00,50.7,49.0,29.82,SE,129,0.0,0.0,94,0.00,,,0.00,WeatherCatV1.20B785,2013-07-16 06:31:00,
2013-07-15 23:36:00,50.7,49.0,29.82,SE,129,0.0,0.0,94,0.00,,,0.00,WeatherCatV1.20B785,2013-07-16 06:36:00,
2013-07-15 23:41:00,50.7,49.0,29.82,SE,129,0.0,0.0,94,0.00,,,0.00,WeatherCatV1.20B785,2013-07-16 06:41:00,
2013-07-15 23:46:00,50.6,48.9,29.82,SE,129,0.0,0.0,94,0.00,,,0.00,WeatherCatV1.20B785,2013-07-16 06:46:00,
2013-07-15 23:51:00,50.5,48.8,29.82,SE,129,0.0,0.0,94,0.00,,,0.00,WeatherCatV1.20B785,2013-07-16 06:51:00,
2013-07-15 23:56:00,50.5,49.1,29.82,SE,129,0.0,0.0,95,0.00,,,0.00,WeatherCatV1.20B785,2013-07-16 06:56:00,